createdAt,value
2018-08-23T12:25:07.828Z,25.68
2018-08-23T12:26:07.762Z,25.75
2018-08-23T12:27:07.677Z,25.83
2018-08-23T12:28:07.580Z,25.83
2018-08-23T12:29:07.487Z,25.92
2018-08-23T12:30:07.393Z,25.75
2018-08-23T12:31:07.281Z,25.85
2018-08-23T12:32:07.089Z,25.92
2018-08-23T12:33:06.946Z,25.86
2018-08-23T12:34:12.506Z,26.00
2018-08-23T12:35:06.645Z,25.98
2018-08-23T12:36:06.500Z,26.00
2018-08-23T12:37:06.366Z,25.96
2018-08-23T12:38:06.202Z,26.04
2018-08-23T12:39:06.035Z,26.10
2018-08-23T12:40:05.935Z,26.19
2018-08-23T12:41:05.858Z,26.15
2018-08-23T12:42:05.546Z,26.05
2018-08-23T12:43:05.395Z,26.20
2018-08-23T12:45:05.082Z,26.11
2018-08-23T12:46:04.875Z,26.21
2018-08-23T12:47:04.692Z,26.15
2018-08-23T12:48:04.541Z,26.20
2018-08-23T12:49:04.383Z,26.16
2018-08-23T12:50:04.209Z,26.20
2018-08-23T12:51:04.069Z,26.21
2018-08-23T12:52:03.878Z,26.26
2018-08-23T12:53:03.740Z,26.20
2018-08-23T12:54:03.522Z,26.24
2018-08-23T12:55:03.389Z,26.16
2018-08-23T12:56:04.032Z,26.20
2018-08-23T12:57:03.006Z,26.42
2018-08-23T12:58:02.831Z,26.43
2018-08-23T12:59:05.519Z,26.53
2018-08-23T13:00:07.157Z,26.61
2018-08-23T13:01:02.346Z,26.65
2018-08-23T13:02:02.297Z,26.73
2018-08-23T13:03:02.033Z,26.71
2018-08-23T13:04:01.809Z,26.68
2018-08-23T13:05:01.610Z,26.71
2018-08-23T13:06:01.427Z,26.76
2018-08-23T13:07:01.369Z,26.80
2018-08-23T13:08:01.235Z,26.79
2018-08-23T13:09:01.607Z,26.80
2018-08-23T13:10:00.728Z,26.80
2018-08-23T13:11:01.553Z,26.83
2018-08-23T13:12:00.446Z,26.75
2018-08-23T13:13:00.233Z,26.78
2018-08-23T13:14:00.025Z,26.86
2018-08-23T13:14:59.860Z,26.94
2018-08-23T13:15:59.678Z,26.88
2018-08-23T13:16:59.506Z,26.85
2018-08-23T13:18:02.050Z,26.83
2018-08-23T13:18:59.161Z,26.89
2018-08-23T13:19:58.965Z,26.83
2018-08-23T13:20:58.872Z,26.85
2018-08-23T13:21:58.705Z,26.83
2018-08-23T13:22:58.489Z,26.94
2018-08-23T13:24:01.542Z,26.85
2018-08-23T13:24:58.179Z,26.83
2018-08-23T13:25:58.007Z,26.90
2018-08-23T13:26:58.551Z,26.86
2018-08-23T13:27:57.681Z,26.88
2018-08-23T13:28:57.517Z,26.85
2018-08-23T13:29:57.444Z,26.89
2018-08-23T13:30:57.194Z,26.83
2018-08-23T13:31:57.097Z,26.86
2018-08-23T13:32:56.856Z,26.85
2018-08-23T13:33:56.702Z,26.78
2018-08-23T13:34:56.534Z,26.85
2018-08-23T13:35:56.402Z,26.85
2018-08-23T13:36:56.262Z,26.83
2018-08-23T13:37:56.045Z,26.83
2018-08-23T13:38:55.907Z,26.90
2018-08-23T13:39:55.725Z,26.78
2018-08-23T13:40:55.580Z,26.85
2018-08-23T13:41:55.540Z,26.82
2018-08-23T13:42:55.243Z,26.83
2018-08-23T13:43:55.108Z,26.85
2018-08-23T13:44:55.541Z,26.86
2018-08-23T13:45:54.726Z,26.82
2018-08-23T13:46:57.613Z,26.85
2018-08-23T13:47:54.477Z,26.86
2018-08-23T13:48:55.054Z,26.88
2018-08-23T13:49:54.054Z,26.83
2018-08-23T13:50:53.944Z,26.93
2018-08-23T13:51:54.576Z,26.85
2018-08-23T13:52:53.675Z,26.94
2018-08-23T13:53:53.619Z,26.90
2018-08-23T13:54:53.213Z,26.90
2018-08-23T13:55:53.042Z,26.98
2018-08-23T13:56:52.868Z,26.98
2018-08-23T13:57:52.683Z,26.90
2018-08-23T13:58:52.563Z,26.93
2018-08-23T13:59:52.363Z,27.01
2018-08-23T14:00:52.175Z,27.03
2018-08-23T14:01:52.002Z,27.10
2018-08-23T14:02:51.873Z,27.01
2018-08-23T14:03:51.661Z,26.98
2018-08-23T14:04:51.545Z,27.04
2018-08-23T14:05:51.319Z,26.93
2018-08-23T14:06:51.181Z,26.90
2018-08-23T14:07:50.996Z,26.98
2018-08-23T14:08:50.852Z,26.97
2018-08-23T14:09:50.686Z,26.94
2018-08-23T14:10:50.531Z,26.90
2018-08-23T14:11:50.399Z,26.94
2018-08-23T14:12:50.203Z,26.97
2018-08-23T14:13:50.020Z,27.00
2018-08-23T14:14:49.861Z,27.00
2018-08-23T14:15:49.693Z,26.95
2018-08-23T14:16:49.637Z,26.90
2018-08-23T14:17:49.346Z,26.94
2018-08-23T14:18:49.202Z,26.98
2018-08-23T14:19:49.020Z,26.97
2018-08-23T14:20:52.553Z,27.00
2018-08-23T14:21:48.692Z,26.93
2018-08-23T14:22:48.550Z,26.95
2018-08-23T14:23:48.403Z,27.05
2018-08-23T14:24:49.077Z,27.07
2018-08-23T14:25:48.574Z,26.98
